sensor_id;sensor_type;location;lat;lon;timestamp;temperature;humidity
29007;DHT22;16104;48.642;9.008;2023-05-24T00:00:05;16.00;57.30
29007;DHT22;16104;48.642;9.008;2023-05-24T01:01:02;15.50;57.80
29007;DHT22;16104;48.642;9.008;2023-05-24T01:06:02;15.40;57.90
29007;DHT22;16104;48.642;9.008;2023-05-24T02:02:15;15.20;57.80
29007;DHT22;16104;48.642;9.008;2023-05-24T02:07:11;15.20;57.70
29007;DHT22;16104;48.642;9.008;2023-05-24T02:12:08;15.20;57.70
29007;DHT22;16104;48.642;9.008;2023-05-24T03:02:52;14.90;57.10
29007;DHT22;16104;48.642;9.008;2023-05-24T03:07:47;14.80;57.20
29007;DHT22;16104;48.642;9.008;2023-05-24T03:12:43;14.80;57.20
29007;DHT22;16104;48.642;9.008;2023-05-24T03:17:38;14.80;57.20
29007;DHT22;16104;48.642;9.008;2023-05-24T03:22:33;14.80;57.20
29007;DHT22;16104;48.642;9.008;2023-05-24T03:27:29;14.70;57.20
29007;DHT22;16104;48.642;9.008;2023-05-24T03:32:25;14.70;57.20
29007;DHT22;16104;48.642;9.008;2023-05-24T03:37:20;14.70;57.20
29007;DHT22;16104;48.642;9.008;2023-05-24T03:42:16;14.60;57.20
29007;DHT22;16104;48.642;9.008;2023-05-24T03:47:11;14.50;57.10
29007;DHT22;16104;48.642;9.008;2023-05-24T03:52:07;14.50;57.40
29007;DHT22;16104;48.642;9.008;2023-05-24T03:57:02;14.50;57.30
29007;DHT22;16104;48.642;9.008;2023-05-24T04:01:58;14.50;57.40
29007;DHT22;16104;48.642;9.008;2023-05-24T04:06:54;14.40;57.30
29007;DHT22;16104;48.642;9.008;2023-05-24T04:11:50;14.40;57.50
29007;DHT22;16104;48.642;9.008;2023-05-24T04:16:46;14.30;57.60
29007;DHT22;16104;48.642;9.008;2023-05-24T04:21:42;14.30;57.70
29007;DHT22;16104;48.642;9.008;2023-05-24T04:26:38;14.30;57.90
29007;DHT22;16104;48.642;9.008;2023-05-24T04:31:34;14.30;57.90
29007;DHT22;16104;48.642;9.008;2023-05-24T04:36:30;14.30;57.90
29007;DHT22;16104;48.642;9.008;2023-05-24T04:41:28;14.20;58.00
29007;DHT22;16104;48.642;9.008;2023-05-24T04:46:26;14.30;58.10
29007;DHT22;16104;48.642;9.008;2023-05-24T04:51:22;14.30;58.20
29007;DHT22;16104;48.642;9.008;2023-05-24T04:56:18;14.30;58.10
29007;DHT22;16104;48.642;9.008;2023-05-24T05:01:14;14.30;58.20
29007;DHT22;16104;48.642;9.008;2023-05-24T05:06:09;14.30;58.10
29007;DHT22;16104;48.642;9.008;2023-05-24T05:11:05;14.30;58.20
29007;DHT22;16104;48.642;9.008;2023-05-24T05:16:01;14.30;58.10
29007;DHT22;16104;48.642;9.008;2023-05-24T05:20:56;14.30;58.10
29007;DHT22;16104;48.642;9.008;2023-05-24T05:25:52;14.30;58.20
29007;DHT22;16104;48.642;9.008;2023-05-24T05:30:48;14.30;58.20
29007;DHT22;16104;48.642;9.008;2023-05-24T05:35:43;14.30;58.10
29007;DHT22;16104;48.642;9.008;2023-05-24T05:40:39;14.30;58.20
29007;DHT22;16104;48.642;9.008;2023-05-24T05:45:34;14.30;58.20
29007;DHT22;16104;48.642;9.008;2023-05-24T05:50:30;14.30;58.30
29007;DHT22;16104;48.642;9.008;2023-05-24T05:55:25;14.30;58.20
29007;DHT22;16104;48.642;9.008;2023-05-24T06:00:21;14.30;58.30
29007;DHT22;16104;48.642;9.008;2023-05-24T06:05:18;14.30;58.00
29007;DHT22;16104;48.642;9.008;2023-05-24T06:10:13;14.40;58.20
29007;DHT22;16104;48.642;9.008;2023-05-24T06:15:09;14.40;58.10
29007;DHT22;16104;48.642;9.008;2023-05-24T06:20:05;14.40;58.10
29007;DHT22;16104;48.642;9.008;2023-05-24T06:25:03;14.40;58.00
29007;DHT22;16104;48.642;9.008;2023-05-24T06:29:59;14.50;58.10
29007;DHT22;16104;48.642;9.008;2023-05-24T06:34:55;14.50;58.10
29007;DHT22;16104;48.642;9.008;2023-05-24T06:39:50;14.60;58.00
29007;DHT22;16104;48.642;9.008;2023-05-24T06:44:46;14.60;58.00
29007;DHT22;16104;48.642;9.008;2023-05-24T06:49:41;14.70;57.70
29007;DHT22;16104;48.642;9.008;2023-05-24T06:54:37;14.70;57.40
29007;DHT22;16104;48.642;9.008;2023-05-24T06:59:32;14.80;57.50
29007;DHT22;16104;48.642;9.008;2023-05-24T07:04:28;14.80;57.30
29007;DHT22;16104;48.642;9.008;2023-05-24T07:09:23;14.80;57.20
29007;DHT22;16104;48.642;9.008;2023-05-24T07:14:19;14.90;57.00
29007;DHT22;16104;48.642;9.008;2023-05-24T07:19:17;15.00;56.90
29007;DHT22;16104;48.642;9.008;2023-05-24T07:24:12;15.00;56.80
29007;DHT22;16104;48.642;9.008;2023-05-24T07:29:08;15.00;56.90
29007;DHT22;16104;48.642;9.008;2023-05-24T07:34:03;15.10;56.80
29007;DHT22;16104;48.642;9.008;2023-05-24T07:38:59;15.10;56.60
29007;DHT22;16104;48.642;9.008;2023-05-24T07:43:55;15.10;56.40
29007;DHT22;16104;48.642;9.008;2023-05-24T07:48:51;15.10;56.50
29007;DHT22;16104;48.642;9.008;2023-05-24T07:53:47;15.10;56.80
29007;DHT22;16104;48.642;9.008;2023-05-24T07:58:42;15.20;56.50
29007;DHT22;16104;48.642;9.008;2023-05-24T08:03:40;15.20;56.70
29007;DHT22;16104;48.642;9.008;2023-05-24T08:08:37;15.10;56.40
29007;DHT22;16104;48.642;9.008;2023-05-24T08:13:33;15.10;56.50
29007;DHT22;16104;48.642;9.008;2023-05-24T08:18:29;15.10;56.70
29007;DHT22;16104;48.642;9.008;2023-05-24T08:23:25;15.20;56.80
29007;DHT22;16104;48.642;9.008;2023-05-24T08:28:21;15.30;57.00
29007;DHT22;16104;48.642;9.008;2023-05-24T08:33:17;15.40;56.70
29007;DHT22;16104;48.642;9.008;2023-05-24T08:38:12;15.50;56.60
29007;DHT22;16104;48.642;9.008;2023-05-24T08:43:08;15.60;56.70
29007;DHT22;16104;48.642;9.008;2023-05-24T08:48:06;15.70;56.60
29007;DHT22;16104;48.642;9.008;2023-05-24T08:53:05;15.80;56.70
29007;DHT22;16104;48.642;9.008;2023-05-24T08:58:00;16.00;56.00
29007;DHT22;16104;48.642;9.008;2023-05-24T09:02:56;16.10;55.90
29007;DHT22;16104;48.642;9.008;2023-05-24T09:07:54;16.20;55.60
29007;DHT22;16104;48.642;9.008;2023-05-24T09:12:54;16.30;55.50
29007;DHT22;16104;48.642;9.008;2023-05-24T09:17:52;16.40;54.80
29007;DHT22;16104;48.642;9.008;2023-05-24T09:22:51;16.50;54.80
29007;DHT22;16104;48.642;9.008;2023-05-24T09:27:52;16.60;54.40
29007;DHT22;16104;48.642;9.008;2023-05-24T09:32:58;16.70;54.20
29007;DHT22;16104;48.642;9.008;2023-05-24T09:37:55;16.70;54.00
29007;DHT22;16104;48.642;9.008;2023-05-24T09:43:08;16.80;54.20
29007;DHT22;16104;48.642;9.008;2023-05-24T09:48:09;16.90;53.40
29007;DHT22;16104;48.642;9.008;2023-05-24T09:53:05;17.00;53.20
29007;DHT22;16104;48.642;9.008;2023-05-24T10:03:01;16.90;52.80
29007;DHT22;16104;48.642;9.008;2023-05-24T10:07:58;16.90;52.50
29007;DHT22;16104;48.642;9.008;2023-05-24T10:12:56;16.90;52.70
29007;DHT22;16104;48.642;9.008;2023-05-24T10:17:55;16.90;52.80
29007;DHT22;16104;48.642;9.008;2023-05-24T10:22:53;16.90;52.90
29007;DHT22;16104;48.642;9.008;2023-05-24T10:27:51;16.90;53.10
29007;DHT22;16104;48.642;9.008;2023-05-24T10:32:49;16.90;52.90
29007;DHT22;16104;48.642;9.008;2023-05-24T10:37:46;17.00;52.80
29007;DHT22;16104;48.642;9.008;2023-05-24T10:42:43;17.00;52.70
29007;DHT22;16104;48.642;9.008;2023-05-24T10:47:39;17.00;52.40
29007;DHT22;16104;48.642;9.008;2023-05-24T10:52:35;16.90;52.30
29007;DHT22;16104;48.642;9.008;2023-05-24T10:57:31;16.90;51.90
29007;DHT22;16104;48.642;9.008;2023-05-24T11:02:33;16.80;51.90
29007;DHT22;16104;48.642;9.008;2023-05-24T11:07:29;16.70;51.50
29007;DHT22;16104;48.642;9.008;2023-05-24T11:12:30;16.60;52.10
29007;DHT22;16104;48.642;9.008;2023-05-24T11:17:28;16.50;51.80
29007;DHT22;16104;48.642;9.008;2023-05-24T11:22:24;16.50;52.40
29007;DHT22;16104;48.642;9.008;2023-05-24T11:27:21;16.50;52.40
29007;DHT22;16104;48.642;9.008;2023-05-24T11:32:18;16.50;52.00
29007;DHT22;16104;48.642;9.008;2023-05-24T11:37:15;16.40;51.70
29007;DHT22;16104;48.642;9.008;2023-05-24T11:42:11;16.40;51.50
29007;DHT22;16104;48.642;9.008;2023-05-24T11:47:07;16.40;52.40
29007;DHT22;16104;48.642;9.008;2023-05-24T11:52:02;16.60;52.50
29007;DHT22;16104;48.642;9.008;2023-05-24T11:56:58;16.70;52.20
29007;DHT22;16104;48.642;9.008;2023-05-24T12:01:58;16.80;52.50
29007;DHT22;16104;48.642;9.008;2023-05-24T12:06:57;17.10;52.50
29007;DHT22;16104;48.642;9.008;2023-05-24T12:11:53;17.30;51.20
29007;DHT22;16104;48.642;9.008;2023-05-24T12:16:49;17.40;51.50
29007;DHT22;16104;48.642;9.008;2023-05-24T12:21:45;17.70;51.80
29007;DHT22;16104;48.642;9.008;2023-05-24T12:26:42;18.10;51.30
29007;DHT22;16104;48.642;9.008;2023-05-24T12:31:39;18.60;50.00
29007;DHT22;16104;48.642;9.008;2023-05-24T12:36:37;19.00;48.30
29007;DHT22;16104;48.642;9.008;2023-05-24T12:41:33;19.40;48.40
29007;DHT22;16104;48.642;9.008;2023-05-24T12:46:28;19.80;47.90
29007;DHT22;16104;48.642;9.008;2023-05-24T12:51:24;20.20;49.00
29007;DHT22;16104;48.642;9.008;2023-05-24T12:56:19;20.80;47.70
29007;DHT22;16104;48.642;9.008;2023-05-24T13:01:16;21.20;46.90
29007;DHT22;16104;48.642;9.008;2023-05-24T13:06:12;21.60;45.70
29007;DHT22;16104;48.642;9.008;2023-05-24T13:11:07;21.80;43.80
29007;DHT22;16104;48.642;9.008;2023-05-24T13:16:03;21.80;43.50
29007;DHT22;16104;48.642;9.008;2023-05-24T13:21:03;21.90;43.20
29007;DHT22;16104;48.642;9.008;2023-05-24T13:25:59;22.20;42.20
29007;DHT22;16104;48.642;9.008;2023-05-24T13:30:55;22.50;42.10
29007;DHT22;16104;48.642;9.008;2023-05-24T13:35:52;22.80;41.10
29007;DHT22;16104;48.642;9.008;2023-05-24T13:40:48;23.00;40.80
29007;DHT22;16104;48.642;9.008;2023-05-24T13:45:44;23.20;40.80
29007;DHT22;16104;48.642;9.008;2023-05-24T13:50:40;23.40;40.40
29007;DHT22;16104;48.642;9.008;2023-05-24T13:55:35;23.70;41.20
29007;DHT22;16104;48.642;9.008;2023-05-24T14:00:32;24.00;39.90
29007;DHT22;16104;48.642;9.008;2023-05-24T14:05:30;24.30;39.40
29007;DHT22;16104;48.642;9.008;2023-05-24T14:10:26;24.60;38.70
29007;DHT22;16104;48.642;9.008;2023-05-24T14:15:22;24.70;38.10
29007;DHT22;16104;48.642;9.008;2023-05-24T14:20:17;24.70;36.80
29007;DHT22;16104;48.642;9.008;2023-05-24T14:25:13;24.60;36.40
29007;DHT22;16104;48.642;9.008;2023-05-24T14:30:09;24.50;37.40
29007;DHT22;16104;48.642;9.008;2023-05-24T14:35:05;24.60;37.50
29007;DHT22;16104;48.642;9.008;2023-05-24T14:40:01;24.70;37.20
29007;DHT22;16104;48.642;9.008;2023-05-24T14:44:56;24.80;36.80
29007;DHT22;16104;48.642;9.008;2023-05-24T14:49:52;25.00;37.20
29007;DHT22;16104;48.642;9.008;2023-05-24T14:54:48;25.00;36.00
29007;DHT22;16104;48.642;9.008;2023-05-24T14:59:44;24.90;34.80
29007;DHT22;16104;48.642;9.008;2023-05-24T15:04:39;24.70;35.00
29007;DHT22;16104;48.642;9.008;2023-05-24T15:09:35;24.40;35.10
29007;DHT22;16104;48.642;9.008;2023-05-24T15:14:30;24.10;35.20
29007;DHT22;16104;48.642;9.008;2023-05-24T15:19:26;23.80;34.80
29007;DHT22;16104;48.642;9.008;2023-05-24T15:24:22;23.40;34.30
29007;DHT22;16104;48.642;9.008;2023-05-24T15:29:18;23.10;35.10
29007;DHT22;16104;48.642;9.008;2023-05-24T15:34:13;22.90;35.80
29007;DHT22;16104;48.642;9.008;2023-05-24T15:39:09;22.80;36.50
29007;DHT22;16104;48.642;9.008;2023-05-24T15:44:04;22.90;36.30
29007;DHT22;16104;48.642;9.008;2023-05-24T15:49:02;23.10;36.40
29007;DHT22;16104;48.642;9.008;2023-05-24T15:53:59;23.00;35.30
29007;DHT22;16104;48.642;9.008;2023-05-24T15:58:54;22.90;35.30
29007;DHT22;16104;48.642;9.008;2023-05-24T16:03:50;22.70;35.10
29007;DHT22;16104;48.642;9.008;2023-05-24T16:08:45;22.40;35.00
29007;DHT22;16104;48.642;9.008;2023-05-24T16:13:41;22.20;35.60
29007;DHT22;16104;48.642;9.008;2023-05-24T16:18:37;22.00;35.80
29007;DHT22;16104;48.642;9.008;2023-05-24T16:23:32;21.80;35.40
29007;DHT22;16104;48.642;9.008;2023-05-24T16:28:28;21.60;36.00
29007;DHT22;16104;48.642;9.008;2023-05-24T16:33:24;21.50;36.20
29007;DHT22;16104;48.642;9.008;2023-05-24T16:38:24;21.60;36.20
29007;DHT22;16104;48.642;9.008;2023-05-24T16:43:19;21.80;36.50
29007;DHT22;16104;48.642;9.008;2023-05-24T16:48:15;22.00;36.80
29007;DHT22;16104;48.642;9.008;2023-05-24T16:53:13;22.20;35.80
29007;DHT22;16104;48.642;9.008;2023-05-24T16:58:09;22.30;34.90
29007;DHT22;16104;48.642;9.008;2023-05-24T17:03:05;22.30;34.40
29007;DHT22;16104;48.642;9.008;2023-05-24T17:08:02;22.00;34.80
29007;DHT22;16104;48.642;9.008;2023-05-24T17:12:57;21.80;35.20
29007;DHT22;16104;48.642;9.008;2023-05-24T17:17:53;21.70;35.40
29007;DHT22;16104;48.642;9.008;2023-05-24T17:22:49;21.50;35.30
29007;DHT22;16104;48.642;9.008;2023-05-24T17:27:45;21.30;35.40
29007;DHT22;16104;48.642;9.008;2023-05-24T17:32:40;21.10;35.40
29007;DHT22;16104;48.642;9.008;2023-05-24T17:37:36;20.80;35.80
29007;DHT22;16104;48.642;9.008;2023-05-24T17:42:31;20.60;36.30
29007;DHT22;16104;48.642;9.008;2023-05-24T17:47:27;20.30;36.50
29007;DHT22;16104;48.642;9.008;2023-05-24T17:52:23;20.10;37.00
29007;DHT22;16104;48.642;9.008;2023-05-24T17:57:18;19.90;37.10
29007;DHT22;16104;48.642;9.008;2023-05-24T18:02:13;19.70;37.40
29007;DHT22;16104;48.642;9.008;2023-05-24T18:07:09;19.40;38.00
29007;DHT22;16104;48.642;9.008;2023-05-24T18:12:05;19.20;38.10
29007;DHT22;16104;48.642;9.008;2023-05-24T18:17:01;19.00;38.40
29007;DHT22;16104;48.642;9.008;2023-05-24T18:21:56;18.80;38.90
29007;DHT22;16104;48.642;9.008;2023-05-24T18:26:52;18.70;39.10
29007;DHT22;16104;48.642;9.008;2023-05-24T18:31:48;18.50;39.30
29007;DHT22;16104;48.642;9.008;2023-05-24T18:36:43;18.40;39.60
29007;DHT22;16104;48.642;9.008;2023-05-24T18:41:39;18.20;39.90
29007;DHT22;16104;48.642;9.008;2023-05-24T18:46:34;18.00;40.20
29007;DHT22;16104;48.642;9.008;2023-05-24T18:51:30;17.90;40.30
29007;DHT22;16104;48.642;9.008;2023-05-24T18:56:25;17.80;40.50
29007;DHT22;16104;48.642;9.008;2023-05-24T19:01:22;17.60;40.60
29007;DHT22;16104;48.642;9.008;2023-05-24T19:06:17;17.50;40.60
29007;DHT22;16104;48.642;9.008;2023-05-24T19:11:13;17.40;40.90
29007;DHT22;16104;48.642;9.008;2023-05-24T19:16:08;17.20;40.80
29007;DHT22;16104;48.642;9.008;2023-05-24T19:21:11;17.10;40.70
29007;DHT22;16104;48.642;9.008;2023-05-24T19:26:07;16.90;40.80
29007;DHT22;16104;48.642;9.008;2023-05-24T19:31:03;16.80;40.50
29007;DHT22;16104;48.642;9.008;2023-05-24T19:35:58;16.70;40.60
29007;DHT22;16104;48.642;9.008;2023-05-24T19:40:54;16.50;40.70
29007;DHT22;16104;48.642;9.008;2023-05-24T19:45:49;16.40;40.50
29007;DHT22;16104;48.642;9.008;2023-05-24T19:50:46;16.30;40.60
29007;DHT22;16104;48.642;9.008;2023-05-24T19:55:41;16.20;40.30
29007;DHT22;16104;48.642;9.008;2023-05-24T20:00:37;16.00;40.00
29007;DHT22;16104;48.642;9.008;2023-05-24T20:05:32;15.90;39.90
29007;DHT22;16104;48.642;9.008;2023-05-24T20:10:28;15.80;39.80
29007;DHT22;16104;48.642;9.008;2023-05-24T20:15:26;15.70;39.70
29007;DHT22;16104;48.642;9.008;2023-05-24T20:20:22;15.60;39.70
29007;DHT22;16104;48.642;9.008;2023-05-24T20:25:18;15.50;39.50
29007;DHT22;16104;48.642;9.008;2023-05-24T20:30:16;15.40;39.40
29007;DHT22;16104;48.642;9.008;2023-05-24T20:35:12;15.30;39.30
29007;DHT22;16104;48.642;9.008;2023-05-24T20:40:07;15.20;39.80
29007;DHT22;16104;48.642;9.008;2023-05-24T20:45:04;15.10;40.00
29007;DHT22;16104;48.642;9.008;2023-05-24T20:50:00;15.00;40.10
29007;DHT22;16104;48.642;9.008;2023-05-24T20:54:56;14.90;40.30
29007;DHT22;16104;48.642;9.008;2023-05-24T20:59:52;14.80;40.50
29007;DHT22;16104;48.642;9.008;2023-05-24T21:04:47;14.70;40.30
29007;DHT22;16104;48.642;9.008;2023-05-24T21:09:43;14.60;40.40
29007;DHT22;16104;48.642;9.008;2023-05-24T21:14:38;14.50;40.50
29007;DHT22;16104;48.642;9.008;2023-05-24T21:19:34;14.40;40.80
29007;DHT22;16104;48.642;9.008;2023-05-24T21:24:29;14.30;41.00
29007;DHT22;16104;48.642;9.008;2023-05-24T21:29:25;14.30;41.30
29007;DHT22;16104;48.642;9.008;2023-05-24T21:34:20;14.20;41.10
29007;DHT22;16104;48.642;9.008;2023-05-24T21:39:16;14.10;41.30
29007;DHT22;16104;48.642;9.008;2023-05-24T21:44:11;14.00;41.60
29007;DHT22;16104;48.642;9.008;2023-05-24T21:49:07;14.00;41.60
29007;DHT22;16104;48.642;9.008;2023-05-24T21:54:02;13.90;42.00
29007;DHT22;16104;48.642;9.008;2023-05-24T21:58:58;13.80;42.40
29007;DHT22;16104;48.642;9.008;2023-05-24T22:03:53;13.80;42.40
29007;DHT22;16104;48.642;9.008;2023-05-24T22:08:49;13.80;42.80
29007;DHT22;16104;48.642;9.008;2023-05-24T22:13:44;13.70;43.20
29007;DHT22;16104;48.642;9.008;2023-05-24T22:18:40;13.70;43.70
29007;DHT22;16104;48.642;9.008;2023-05-24T22:23:36;13.70;44.10
29007;DHT22;16104;48.642;9.008;2023-05-24T22:28:53;13.70;44.30
29007;DHT22;16104;48.642;9.008;2023-05-24T22:33:49;13.70;45.00
29007;DHT22;16104;48.642;9.008;2023-05-24T22:38:44;13.60;45.00
29007;DHT22;16104;48.642;9.008;2023-05-24T22:43:41;13.70;45.30
29007;DHT22;16104;48.642;9.008;2023-05-24T22:48:36;13.60;46.60
29007;DHT22;16104;48.642;9.008;2023-05-24T22:53:32;13.60;45.90
29007;DHT22;16104;48.642;9.008;2023-05-24T22:58:27;13.60;45.90
29007;DHT22;16104;48.642;9.008;2023-05-24T23:03:23;13.60;46.00
29007;DHT22;16104;48.642;9.008;2023-05-24T23:08:18;13.60;46.10
29007;DHT22;16104;48.642;9.008;2023-05-24T23:13:16;13.60;46.20
29007;DHT22;16104;48.642;9.008;2023-05-24T23:18:13;13.50;46.30
29007;DHT22;16104;48.642;9.008;2023-05-24T23:23:10;13.50;46.40
29007;DHT22;16104;48.642;9.008;2023-05-24T23:28:06;13.50;46.40
29007;DHT22;16104;48.642;9.008;2023-05-24T23:33:02;13.40;46.40
29007;DHT22;16104;48.642;9.008;2023-05-24T23:37:57;13.40;46.50
29007;DHT22;16104;48.642;9.008;2023-05-24T23:42:53;13.40;46.50
29007;DHT22;16104;48.642;9.008;2023-05-24T23:47:48;13.30;47.20
29007;DHT22;16104;48.642;9.008;2023-05-24T23:52:44;13.30;46.80
29007;DHT22;16104;48.642;9.008;2023-05-24T23:57:40;13.20;46.80
